sensor_id;sensor_type;location;lat;lon;timestamp;P1;durP1;ratioP1;P2;durP2;ratioP2
70337;SDS011;57757;53.198;19.646;2022-12-13T00:01:25;9.60;;;3.10;;
70337;SDS011;57757;53.198;19.646;2022-12-13T00:03:55;18.80;;;5.60;;
70337;SDS011;57757;53.198;19.646;2022-12-13T00:06:25;16.80;;;4.30;;
70337;SDS011;57757;53.198;19.646;2022-12-13T00:08:54;15.60;;;4.20;;
70337;SDS011;57757;53.198;19.646;2022-12-13T00:11:21;14.20;;;4.50;;
70337;SDS011;57757;53.198;19.646;2022-12-13T00:13:49;13.90;;;4.50;;
70337;SDS011;57757;53.198;19.646;2022-12-13T00:16:18;16.50;;;4.50;;
70337;SDS011;57757;53.198;19.646;2022-12-13T00:18:51;15.60;;;4.40;;
70337;SDS011;57757;53.198;19.646;2022-12-13T00:21:23;14.50;;;5.80;;
70337;SDS011;57757;53.198;19.646;2022-12-13T00:23:54;13.30;;;5.60;;
70337;SDS011;57757;53.198;19.646;2022-12-13T00:26:23;11.60;;;3.50;;
70337;SDS011;57757;53.198;19.646;2022-12-13T00:28:53;17.00;;;5.40;;
70337;SDS011;57757;53.198;19.646;2022-12-13T00:31:22;13.40;;;3.60;;
70337;SDS011;57757;53.198;19.646;2022-12-13T00:34:10;11.20;;;3.90;;
70337;SDS011;57757;53.198;19.646;2022-12-13T00:36:38;11.00;;;3.20;;
70337;SDS011;57757;53.198;19.646;2022-12-13T00:39:06;12.60;;;2.80;;
70337;SDS011;57757;53.198;19.646;2022-12-13T00:41:34;10.00;;;3.20;;
70337;SDS011;57757;53.198;19.646;2022-12-13T00:44:02;9.70;;;3.50;;
70337;SDS011;57757;53.198;19.646;2022-12-13T00:46:31;10.70;;;3.30;;
70337;SDS011;57757;53.198;19.646;2022-12-13T00:48:59;14.20;;;3.60;;
70337;SDS011;57757;53.198;19.646;2022-12-13T00:51:29;12.80;;;4.20;;
70337;SDS011;57757;53.198;19.646;2022-12-13T00:53:58;13.50;;;3.80;;
70337;SDS011;57757;53.198;19.646;2022-12-13T00:56:28;11.40;;;3.20;;
70337;SDS011;57757;53.198;19.646;2022-12-13T00:58:57;12.30;;;3.60;;
70337;SDS011;57757;53.198;19.646;2022-12-13T01:01:29;12.60;;;2.80;;
70337;SDS011;57757;53.198;19.646;2022-12-13T01:04:00;12.50;;;3.60;;
70337;SDS011;57757;53.198;19.646;2022-12-13T01:06:36;11.20;;;3.60;;
70337;SDS011;57757;53.198;19.646;2022-12-13T01:09:07;9.70;;;3.40;;
70337;SDS011;57757;53.198;19.646;2022-12-13T01:11:40;14.20;;;4.30;;
70337;SDS011;57757;53.198;19.646;2022-12-13T01:14:08;13.10;;;4.10;;
70337;SDS011;57757;53.198;19.646;2022-12-13T01:16:35;11.00;;;3.50;;
70337;SDS011;57757;53.198;19.646;2022-12-13T01:19:03;13.10;;;4.10;;
70337;SDS011;57757;53.198;19.646;2022-12-13T01:21:31;11.30;;;3.40;;
70337;SDS011;57757;53.198;19.646;2022-12-13T01:24:02;12.40;;;3.60;;
70337;SDS011;57757;53.198;19.646;2022-12-13T01:26:31;13.40;;;3.90;;
70337;SDS011;57757;53.198;19.646;2022-12-13T01:29:00;13.00;;;3.50;;
70337;SDS011;57757;53.198;19.646;2022-12-13T01:31:27;11.00;;;3.20;;
70337;SDS011;57757;53.198;19.646;2022-12-13T01:33:55;11.20;;;3.50;;
70337;SDS011;57757;53.198;19.646;2022-12-13T01:36:22;9.10;;;2.80;;
70337;SDS011;57757;53.198;19.646;2022-12-13T01:38:55;10.70;;;2.90;;
70337;SDS011;57757;53.198;19.646;2022-12-13T01:41:25;11.50;;;3.30;;
70337;SDS011;57757;53.198;19.646;2022-12-13T01:43:56;11.50;;;3.80;;
70337;SDS011;57757;53.198;19.646;2022-12-13T01:46:30;10.10;;;3.60;;
70337;SDS011;57757;53.198;19.646;2022-12-13T01:49:08;10.50;;;3.00;;
70337;SDS011;57757;53.198;19.646;2022-12-13T01:51:51;9.40;;;2.60;;
70337;SDS011;57757;53.198;19.646;2022-12-13T01:54:23;8.90;;;3.00;;
70337;SDS011;57757;53.198;19.646;2022-12-13T01:57:01;9.30;;;2.50;;
70337;SDS011;57757;53.198;19.646;2022-12-13T01:59:33;9.80;;;2.10;;
70337;SDS011;57757;53.198;19.646;2022-12-13T02:02:02;8.00;;;2.10;;
70337;SDS011;57757;53.198;19.646;2022-12-13T02:04:36;10.70;;;3.20;;
70337;SDS011;57757;53.198;19.646;2022-12-13T02:07:12;10.50;;;3.00;;
70337;SDS011;57757;53.198;19.646;2022-12-13T02:09:54;8.70;;;2.00;;
70337;SDS011;57757;53.198;19.646;2022-12-13T02:12:28;8.20;;;2.30;;
70337;SDS011;57757;53.198;19.646;2022-12-13T02:14:59;9.70;;;2.50;;
70337;SDS011;57757;53.198;19.646;2022-12-13T02:20:39;8.50;;;2.10;;
70337;SDS011;57757;53.198;19.646;2022-12-13T02:34:37;8.50;;;2.70;;
70337;SDS011;57757;53.198;19.646;2022-12-13T02:45:51;8.50;;;2.10;;
70337;SDS011;57757;53.198;19.646;2022-12-13T02:48:25;7.10;;;1.80;;
70337;SDS011;57757;53.198;19.646;2022-12-13T02:50:55;10.30;;;2.70;;
70337;SDS011;57757;53.198;19.646;2022-12-13T02:53:26;7.50;;;1.90;;
70337;SDS011;57757;53.198;19.646;2022-12-13T02:55:54;9.00;;;2.20;;
70337;SDS011;57757;53.198;19.646;2022-12-13T02:58:23;7.30;;;2.00;;
70337;SDS011;57757;53.198;19.646;2022-12-13T03:15:26;7.50;;;2.00;;
70337;SDS011;57757;53.198;19.646;2022-12-13T03:17:56;7.40;;;2.20;;
70337;SDS011;57757;53.198;19.646;2022-12-13T03:20:46;6.80;;;1.50;;
70337;SDS011;57757;53.198;19.646;2022-12-13T03:23:16;7.10;;;1.90;;
70337;SDS011;57757;53.198;19.646;2022-12-13T03:25:49;7.20;;;1.90;;
70337;SDS011;57757;53.198;19.646;2022-12-13T03:28:20;9.60;;;2.00;;
70337;SDS011;57757;53.198;19.646;2022-12-13T03:30:48;7.00;;;2.20;;
70337;SDS011;57757;53.198;19.646;2022-12-13T03:33:16;9.90;;;3.10;;
70337;SDS011;57757;53.198;19.646;2022-12-13T03:35:43;9.80;;;3.00;;
70337;SDS011;57757;53.198;19.646;2022-12-13T03:38:13;7.30;;;2.00;;
70337;SDS011;57757;53.198;19.646;2022-12-13T03:40:53;7.70;;;2.60;;
70337;SDS011;57757;53.198;19.646;2022-12-13T03:43:23;7.10;;;1.90;;
70337;SDS011;57757;53.198;19.646;2022-12-13T03:45:51;8.80;;;2.20;;
70337;SDS011;57757;53.198;19.646;2022-12-13T03:48:19;8.60;;;2.60;;
70337;SDS011;57757;53.198;19.646;2022-12-13T03:50:50;9.50;;;2.10;;
70337;SDS011;57757;53.198;19.646;2022-12-13T03:53:19;6.90;;;1.80;;
70337;SDS011;57757;53.198;19.646;2022-12-13T03:56:01;8.60;;;2.30;;
70337;SDS011;57757;53.198;19.646;2022-12-13T03:58:31;8.80;;;2.60;;
70337;SDS011;57757;53.198;19.646;2022-12-13T04:01:05;9.50;;;2.80;;
70337;SDS011;57757;53.198;19.646;2022-12-13T04:03:37;7.00;;;2.30;;
70337;SDS011;57757;53.198;19.646;2022-12-13T04:06:06;7.40;;;2.20;;
70337;SDS011;57757;53.198;19.646;2022-12-13T04:08:35;7.30;;;2.10;;
70337;SDS011;57757;53.198;19.646;2022-12-13T04:11:03;6.70;;;2.10;;
70337;SDS011;57757;53.198;19.646;2022-12-13T04:13:52;7.70;;;2.40;;
70337;SDS011;57757;53.198;19.646;2022-12-13T04:16:21;8.50;;;2.30;;
70337;SDS011;57757;53.198;19.646;2022-12-13T04:18:49;8.60;;;2.50;;
70337;SDS011;57757;53.198;19.646;2022-12-13T04:21:17;9.30;;;2.80;;
70337;SDS011;57757;53.198;19.646;2022-12-13T04:23:45;8.80;;;2.50;;
70337;SDS011;57757;53.198;19.646;2022-12-13T04:26:12;8.60;;;2.30;;
70337;SDS011;57757;53.198;19.646;2022-12-13T04:28:40;9.50;;;2.80;;
70337;SDS011;57757;53.198;19.646;2022-12-13T04:31:08;10.40;;;3.10;;
70337;SDS011;57757;53.198;19.646;2022-12-13T04:33:36;9.50;;;2.60;;
70337;SDS011;57757;53.198;19.646;2022-12-13T04:36:03;9.50;;;2.20;;
70337;SDS011;57757;53.198;19.646;2022-12-13T04:38:31;9.70;;;2.70;;
70337;SDS011;57757;53.198;19.646;2022-12-13T04:43:44;8.50;;;2.30;;
70337;SDS011;57757;53.198;19.646;2022-12-13T04:46:18;10.30;;;3.10;;
70337;SDS011;57757;53.198;19.646;2022-12-13T04:48:46;8.90;;;3.80;;
70337;SDS011;57757;53.198;19.646;2022-12-13T04:51:14;9.60;;;3.00;;
70337;SDS011;57757;53.198;19.646;2022-12-13T04:53:42;9.80;;;2.80;;
70337;SDS011;57757;53.198;19.646;2022-12-13T04:56:10;10.20;;;3.20;;
70337;SDS011;57757;53.198;19.646;2022-12-13T04:58:37;10.40;;;2.70;;
70337;SDS011;57757;53.198;19.646;2022-12-13T05:01:05;11.50;;;3.70;;
70337;SDS011;57757;53.198;19.646;2022-12-13T05:03:37;10.80;;;3.60;;
70337;SDS011;57757;53.198;19.646;2022-12-13T05:06:06;10.80;;;3.00;;
70337;SDS011;57757;53.198;19.646;2022-12-13T05:08:54;10.20;;;3.10;;
70337;SDS011;57757;53.198;19.646;2022-12-13T05:11:27;11.30;;;2.70;;
70337;SDS011;57757;53.198;19.646;2022-12-13T05:14:02;11.00;;;3.10;;
70337;SDS011;57757;53.198;19.646;2022-12-13T05:16:30;11.10;;;3.60;;
70337;SDS011;57757;53.198;19.646;2022-12-13T05:18:57;9.80;;;3.10;;
70337;SDS011;57757;53.198;19.646;2022-12-13T05:21:25;9.50;;;2.80;;
70337;SDS011;57757;53.198;19.646;2022-12-13T05:23:52;10.30;;;3.20;;
70337;SDS011;57757;53.198;19.646;2022-12-13T05:26:20;9.90;;;3.60;;
70337;SDS011;57757;53.198;19.646;2022-12-13T05:28:47;9.50;;;3.70;;
70337;SDS011;57757;53.198;19.646;2022-12-13T05:31:14;15.20;;;6.30;;
70337;SDS011;57757;53.198;19.646;2022-12-13T05:33:50;11.50;;;3.30;;
70337;SDS011;57757;53.198;19.646;2022-12-13T05:36:18;9.50;;;3.40;;
70337;SDS011;57757;53.198;19.646;2022-12-13T05:38:48;11.40;;;3.40;;
70337;SDS011;57757;53.198;19.646;2022-12-13T05:41:16;13.20;;;3.70;;
70337;SDS011;57757;53.198;19.646;2022-12-13T05:43:47;12.50;;;3.60;;
70337;SDS011;57757;53.198;19.646;2022-12-13T05:46:14;10.10;;;3.40;;
70337;SDS011;57757;53.198;19.646;2022-12-13T05:48:42;10.70;;;3.80;;
70337;SDS011;57757;53.198;19.646;2022-12-13T05:51:09;12.70;;;4.20;;
70337;SDS011;57757;53.198;19.646;2022-12-13T05:53:39;12.60;;;4.00;;
70337;SDS011;57757;53.198;19.646;2022-12-13T05:56:08;10.00;;;3.30;;
70337;SDS011;57757;53.198;19.646;2022-12-13T05:58:37;11.70;;;3.80;;
70337;SDS011;57757;53.198;19.646;2022-12-13T06:01:07;12.10;;;3.90;;
70337;SDS011;57757;53.198;19.646;2022-12-13T06:03:39;14.90;;;4.20;;
70337;SDS011;57757;53.198;19.646;2022-12-13T06:06:09;10.50;;;3.30;;
70337;SDS011;57757;53.198;19.646;2022-12-13T06:08:38;12.80;;;4.40;;
70337;SDS011;57757;53.198;19.646;2022-12-13T06:11:06;21.20;;;6.40;;
70337;SDS011;57757;53.198;19.646;2022-12-13T06:13:39;14.00;;;4.80;;
70337;SDS011;57757;53.198;19.646;2022-12-13T06:16:11;14.30;;;5.30;;
70337;SDS011;57757;53.198;19.646;2022-12-13T06:18:51;13.30;;;5.20;;
70337;SDS011;57757;53.198;19.646;2022-12-13T06:21:32;34.30;;;9.30;;
70337;SDS011;57757;53.198;19.646;2022-12-13T06:24:15;38.50;;;11.20;;
70337;SDS011;57757;53.198;19.646;2022-12-13T06:26:44;23.00;;;8.30;;
70337;SDS011;57757;53.198;19.646;2022-12-13T06:29:13;19.80;;;6.20;;
70337;SDS011;57757;53.198;19.646;2022-12-13T06:31:55;22.30;;;6.30;;
70337;SDS011;57757;53.198;19.646;2022-12-13T06:34:30;14.00;;;5.40;;
70337;SDS011;57757;53.198;19.646;2022-12-13T06:37:03;20.40;;;6.90;;
70337;SDS011;57757;53.198;19.646;2022-12-13T06:39:38;16.40;;;5.70;;
70337;SDS011;57757;53.198;19.646;2022-12-13T06:42:14;23.80;;;8.60;;
70337;SDS011;57757;53.198;19.646;2022-12-13T06:44:48;15.70;;;6.80;;
70337;SDS011;57757;53.198;19.646;2022-12-13T06:47:23;15.30;;;6.30;;
70337;SDS011;57757;53.198;19.646;2022-12-13T06:49:58;16.70;;;7.20;;
70337;SDS011;57757;53.198;19.646;2022-12-13T06:52:32;21.10;;;8.40;;
70337;SDS011;57757;53.198;19.646;2022-12-13T06:55:00;18.30;;;6.10;;
70337;SDS011;57757;53.198;19.646;2022-12-13T06:57:30;14.80;;;5.70;;
70337;SDS011;57757;53.198;19.646;2022-12-13T07:00:01;18.10;;;6.00;;
70337;SDS011;57757;53.198;19.646;2022-12-13T07:02:31;21.40;;;9.20;;
70337;SDS011;57757;53.198;19.646;2022-12-13T07:04:59;49.80;;;16.30;;
70337;SDS011;57757;53.198;19.646;2022-12-13T07:07:27;50.50;;;16.00;;
70337;SDS011;57757;53.198;19.646;2022-12-13T07:09:55;59.20;;;17.80;;
70337;SDS011;57757;53.198;19.646;2022-12-13T07:12:23;60.20;;;19.20;;
70337;SDS011;57757;53.198;19.646;2022-12-13T07:14:50;44.90;;;17.10;;
70337;SDS011;57757;53.198;19.646;2022-12-13T07:17:18;39.00;;;13.40;;
70337;SDS011;57757;53.198;19.646;2022-12-13T07:20:05;48.10;;;15.90;;
70337;SDS011;57757;53.198;19.646;2022-12-13T07:22:36;39.70;;;15.50;;
70337;SDS011;57757;53.198;19.646;2022-12-13T07:25:13;37.90;;;13.40;;
70337;SDS011;57757;53.198;19.646;2022-12-13T07:27:56;41.10;;;14.60;;
70337;SDS011;57757;53.198;19.646;2022-12-13T07:30:33;27.50;;;10.70;;
70337;SDS011;57757;53.198;19.646;2022-12-13T07:33:08;19.00;;;7.50;;
70337;SDS011;57757;53.198;19.646;2022-12-13T07:35:36;20.10;;;7.40;;
70337;SDS011;57757;53.198;19.646;2022-12-13T07:38:08;17.50;;;6.50;;
70337;SDS011;57757;53.198;19.646;2022-12-13T07:40:37;19.70;;;7.10;;
70337;SDS011;57757;53.198;19.646;2022-12-13T07:43:08;25.90;;;10.30;;
70337;SDS011;57757;53.198;19.646;2022-12-13T07:45:36;21.00;;;7.60;;
70337;SDS011;57757;53.198;19.646;2022-12-13T07:48:04;22.30;;;8.70;;
70337;SDS011;57757;53.198;19.646;2022-12-13T07:50:33;23.10;;;8.30;;
70337;SDS011;57757;53.198;19.646;2022-12-13T07:53:05;16.00;;;6.70;;
70337;SDS011;57757;53.198;19.646;2022-12-13T07:55:34;26.70;;;8.60;;
70337;SDS011;57757;53.198;19.646;2022-12-13T07:58:03;16.10;;;6.40;;
70337;SDS011;57757;53.198;19.646;2022-12-13T08:00:43;15.00;;;5.40;;
70337;SDS011;57757;53.198;19.646;2022-12-13T08:03:13;20.00;;;8.40;;
70337;SDS011;57757;53.198;19.646;2022-12-13T08:08:38;15.80;;;5.70;;
70337;SDS011;57757;53.198;19.646;2022-12-13T08:11:08;42.30;;;16.90;;
70337;SDS011;57757;53.198;19.646;2022-12-13T08:13:37;16.70;;;6.70;;
70337;SDS011;57757;53.198;19.646;2022-12-13T08:16:08;17.90;;;6.10;;
70337;SDS011;57757;53.198;19.646;2022-12-13T08:18:53;17.10;;;6.30;;
70337;SDS011;57757;53.198;19.646;2022-12-13T08:21:37;14.90;;;6.00;;
70337;SDS011;57757;53.198;19.646;2022-12-13T08:24:25;15.10;;;6.30;;
70337;SDS011;57757;53.198;19.646;2022-12-13T08:26:58;13.70;;;5.60;;
70337;SDS011;57757;53.198;19.646;2022-12-13T08:29:29;20.90;;;6.20;;
70337;SDS011;57757;53.198;19.646;2022-12-13T08:32:02;16.30;;;6.70;;
70337;SDS011;57757;53.198;19.646;2022-12-13T08:34:32;15.30;;;6.00;;
70337;SDS011;57757;53.198;19.646;2022-12-13T08:36:59;19.20;;;6.70;;
70337;SDS011;57757;53.198;19.646;2022-12-13T08:39:30;16.20;;;5.40;;
70337;SDS011;57757;53.198;19.646;2022-12-13T08:42:03;15.40;;;6.60;;
70337;SDS011;57757;53.198;19.646;2022-12-13T08:44:45;18.80;;;8.40;;
70337;SDS011;57757;53.198;19.646;2022-12-13T08:47:15;20.90;;;9.20;;
70337;SDS011;57757;53.198;19.646;2022-12-13T08:50:01;24.90;;;9.00;;
70337;SDS011;57757;53.198;19.646;2022-12-13T08:52:31;26.10;;;9.20;;
70337;SDS011;57757;53.198;19.646;2022-12-13T08:55:08;24.00;;;9.30;;
70337;SDS011;57757;53.198;19.646;2022-12-13T08:57:38;27.40;;;9.00;;
70337;SDS011;57757;53.198;19.646;2022-12-13T09:00:08;22.70;;;7.60;;
70337;SDS011;57757;53.198;19.646;2022-12-13T09:02:38;18.80;;;6.50;;
70337;SDS011;57757;53.198;19.646;2022-12-13T09:05:06;16.90;;;7.20;;
70337;SDS011;57757;53.198;19.646;2022-12-13T09:07:35;24.50;;;7.10;;
70337;SDS011;57757;53.198;19.646;2022-12-13T09:10:06;15.60;;;6.40;;
70337;SDS011;57757;53.198;19.646;2022-12-13T09:12:55;17.50;;;6.40;;
70337;SDS011;57757;53.198;19.646;2022-12-13T09:15:29;18.90;;;7.80;;
70337;SDS011;57757;53.198;19.646;2022-12-13T09:18:01;20.00;;;8.40;;
70337;SDS011;57757;53.198;19.646;2022-12-13T09:20:34;16.40;;;6.50;;
70337;SDS011;57757;53.198;19.646;2022-12-13T09:23:11;15.80;;;7.70;;
70337;SDS011;57757;53.198;19.646;2022-12-13T09:25:53;16.90;;;7.30;;
70337;SDS011;57757;53.198;19.646;2022-12-13T09:28:35;16.50;;;5.60;;
70337;SDS011;57757;53.198;19.646;2022-12-13T09:31:05;18.60;;;6.80;;
70337;SDS011;57757;53.198;19.646;2022-12-13T09:33:43;18.50;;;7.20;;
70337;SDS011;57757;53.198;19.646;2022-12-13T09:36:14;20.10;;;7.90;;
70337;SDS011;57757;53.198;19.646;2022-12-13T09:38:45;20.00;;;6.60;;
70337;SDS011;57757;53.198;19.646;2022-12-13T09:43:56;34.30;;;18.30;;
70337;SDS011;57757;53.198;19.646;2022-12-13T09:46:36;20.00;;;8.30;;
70337;SDS011;57757;53.198;19.646;2022-12-13T09:52:03;14.90;;;5.80;;
70337;SDS011;57757;53.198;19.646;2022-12-13T09:54:52;19.40;;;7.40;;
70337;SDS011;57757;53.198;19.646;2022-12-13T09:57:27;22.00;;;9.40;;
70337;SDS011;57757;53.198;19.646;2022-12-13T10:00:02;25.60;;;9.40;;
70337;SDS011;57757;53.198;19.646;2022-12-13T10:02:32;28.50;;;12.00;;
70337;SDS011;57757;53.198;19.646;2022-12-13T10:10:50;27.50;;;9.80;;
70337;SDS011;57757;53.198;19.646;2022-12-13T10:13:20;29.40;;;9.60;;
70337;SDS011;57757;53.198;19.646;2022-12-13T10:15:58;24.90;;;8.80;;
70337;SDS011;57757;53.198;19.646;2022-12-13T10:18:33;29.20;;;9.60;;
70337;SDS011;57757;53.198;19.646;2022-12-13T10:27:10;22.80;;;8.60;;
70337;SDS011;57757;53.198;19.646;2022-12-13T10:32:23;19.30;;;7.20;;
70337;SDS011;57757;53.198;19.646;2022-12-13T10:34:51;18.50;;;6.40;;
70337;SDS011;57757;53.198;19.646;2022-12-13T10:39:49;19.60;;;7.40;;
70337;SDS011;57757;53.198;19.646;2022-12-13T10:42:17;29.30;;;10.60;;
70337;SDS011;57757;53.198;19.646;2022-12-13T10:47:57;16.10;;;6.40;;
70337;SDS011;57757;53.198;19.646;2022-12-13T10:50:30;17.90;;;6.80;;
70337;SDS011;57757;53.198;19.646;2022-12-13T10:52:58;18.60;;;7.60;;
70337;SDS011;57757;53.198;19.646;2022-12-13T10:55:29;18.40;;;7.10;;
70337;SDS011;57757;53.198;19.646;2022-12-13T10:58:02;21.00;;;7.00;;
70337;SDS011;57757;53.198;19.646;2022-12-13T11:00:37;19.40;;;7.50;;
70337;SDS011;57757;53.198;19.646;2022-12-13T11:03:09;20.70;;;8.40;;
70337;SDS011;57757;53.198;19.646;2022-12-13T11:05:41;20.00;;;7.60;;
70337;SDS011;57757;53.198;19.646;2022-12-13T11:08:13;27.90;;;9.90;;
70337;SDS011;57757;53.198;19.646;2022-12-13T11:10:54;19.00;;;7.80;;
70337;SDS011;57757;53.198;19.646;2022-12-13T11:13:28;22.80;;;8.20;;
70337;SDS011;57757;53.198;19.646;2022-12-13T11:16:01;15.50;;;5.90;;
70337;SDS011;57757;53.198;19.646;2022-12-13T11:18:34;18.00;;;6.10;;
70337;SDS011;57757;53.198;19.646;2022-12-13T11:21:03;20.30;;;7.60;;
70337;SDS011;57757;53.198;19.646;2022-12-13T11:23:35;29.60;;;13.20;;
70337;SDS011;57757;53.198;19.646;2022-12-13T11:26:10;21.20;;;8.20;;
70337;SDS011;57757;53.198;19.646;2022-12-13T11:34:37;40.00;;;13.50;;
70337;SDS011;57757;53.198;19.646;2022-12-13T11:37:19;26.10;;;10.00;;
70337;SDS011;57757;53.198;19.646;2022-12-13T11:40:02;33.40;;;11.20;;
70337;SDS011;57757;53.198;19.646;2022-12-13T11:42:40;25.70;;;9.70;;
70337;SDS011;57757;53.198;19.646;2022-12-13T11:45:14;21.50;;;8.00;;
70337;SDS011;57757;53.198;19.646;2022-12-13T11:50:50;19.60;;;7.60;;
70337;SDS011;57757;53.198;19.646;2022-12-13T11:53:44;19.80;;;8.00;;
70337;SDS011;57757;53.198;19.646;2022-12-13T12:10:09;21.70;;;11.10;;
70337;SDS011;57757;53.198;19.646;2022-12-13T12:12:54;19.00;;;7.50;;
70337;SDS011;57757;53.198;19.646;2022-12-13T12:15:33;29.40;;;11.60;;
70337;SDS011;57757;53.198;19.646;2022-12-13T12:18:15;23.40;;;9.50;;
70337;SDS011;57757;53.198;19.646;2022-12-13T12:26:20;22.90;;;9.30;;
70337;SDS011;57757;53.198;19.646;2022-12-13T12:34:54;26.40;;;10.60;;
70337;SDS011;57757;53.198;19.646;2022-12-13T12:37:42;32.50;;;13.60;;
70337;SDS011;57757;53.198;19.646;2022-12-13T12:52:21;26.50;;;10.60;;
70337;SDS011;57757;53.198;19.646;2022-12-13T13:00:49;25.40;;;8.70;;
70337;SDS011;57757;53.198;19.646;2022-12-13T13:03:28;23.60;;;10.10;;
70337;SDS011;57757;53.198;19.646;2022-12-13T13:08:38;24.60;;;9.20;;
70337;SDS011;57757;53.198;19.646;2022-12-13T13:11:08;26.10;;;10.20;;
70337;SDS011;57757;53.198;19.646;2022-12-13T13:21:44;22.50;;;9.90;;
70337;SDS011;57757;53.198;19.646;2022-12-13T13:24:13;27.20;;;10.70;;
70337;SDS011;57757;53.198;19.646;2022-12-13T13:26:42;23.20;;;8.90;;
70337;SDS011;57757;53.198;19.646;2022-12-13T13:31:55;30.30;;;13.60;;
70337;SDS011;57757;53.198;19.646;2022-12-13T13:34:33;35.50;;;13.50;;
70337;SDS011;57757;53.198;19.646;2022-12-13T13:37:03;31.30;;;11.70;;
70337;SDS011;57757;53.198;19.646;2022-12-13T13:47:34;19.30;;;7.80;;
70337;SDS011;57757;53.198;19.646;2022-12-13T14:27:02;35.00;;;12.40;;
70337;SDS011;57757;53.198;19.646;2022-12-13T14:29:42;37.10;;;15.80;;
70337;SDS011;57757;53.198;19.646;2022-12-13T14:32:28;56.00;;;20.10;;
70337;SDS011;57757;53.198;19.646;2022-12-13T14:34:59;102.60;;;31.90;;
70337;SDS011;57757;53.198;19.646;2022-12-13T14:37:54;118.10;;;33.80;;
70337;SDS011;57757;53.198;19.646;2022-12-13T14:40:32;111.60;;;27.40;;
70337;SDS011;57757;53.198;19.646;2022-12-13T14:43:02;64.80;;;16.10;;
70337;SDS011;57757;53.198;19.646;2022-12-13T14:45:39;66.30;;;18.10;;
70337;SDS011;57757;53.198;19.646;2022-12-13T14:48:11;83.80;;;23.80;;
70337;SDS011;57757;53.198;19.646;2022-12-13T14:50:55;46.60;;;13.30;;
70337;SDS011;57757;53.198;19.646;2022-12-13T14:53:26;65.30;;;18.90;;
70337;SDS011;57757;53.198;19.646;2022-12-13T14:56:02;59.90;;;17.80;;
70337;SDS011;57757;53.198;19.646;2022-12-13T14:58:57;48.50;;;15.60;;
70337;SDS011;57757;53.198;19.646;2022-12-13T15:01:28;67.80;;;19.10;;
70337;SDS011;57757;53.198;19.646;2022-12-13T15:06:49;37.50;;;11.20;;
70337;SDS011;57757;53.198;19.646;2022-12-13T15:09:29;75.80;;;21.20;;
70337;SDS011;57757;53.198;19.646;2022-12-13T15:12:06;74.90;;;23.10;;
70337;SDS011;57757;53.198;19.646;2022-12-13T15:15:02;98.40;;;30.90;;
70337;SDS011;57757;53.198;19.646;2022-12-13T15:17:35;71.90;;;26.40;;
70337;SDS011;57757;53.198;19.646;2022-12-13T15:22:54;49.20;;;14.50;;
70337;SDS011;57757;53.198;19.646;2022-12-13T15:25:31;71.50;;;24.00;;
70337;SDS011;57757;53.198;19.646;2022-12-13T15:28:01;70.10;;;23.40;;
70337;SDS011;57757;53.198;19.646;2022-12-13T15:30:30;49.60;;;15.40;;
70337;SDS011;57757;53.198;19.646;2022-12-13T15:33:02;67.20;;;21.60;;
70337;SDS011;57757;53.198;19.646;2022-12-13T15:35:34;70.40;;;20.40;;
70337;SDS011;57757;53.198;19.646;2022-12-13T15:38:03;68.90;;;22.00;;
70337;SDS011;57757;53.198;19.646;2022-12-13T15:40:31;45.60;;;16.50;;
70337;SDS011;57757;53.198;19.646;2022-12-13T15:43:00;59.10;;;20.60;;
70337;SDS011;57757;53.198;19.646;2022-12-13T15:45:27;58.20;;;19.80;;
70337;SDS011;57757;53.198;19.646;2022-12-13T15:48:03;84.30;;;26.30;;
70337;SDS011;57757;53.198;19.646;2022-12-13T15:55:56;52.60;;;16.90;;
70337;SDS011;57757;53.198;19.646;2022-12-13T15:58:33;36.20;;;11.80;;
70337;SDS011;57757;53.198;19.646;2022-12-13T16:01:02;64.40;;;19.20;;
70337;SDS011;57757;53.198;19.646;2022-12-13T16:03:38;48.90;;;16.60;;
70337;SDS011;57757;53.198;19.646;2022-12-13T16:06:08;59.80;;;18.00;;
70337;SDS011;57757;53.198;19.646;2022-12-13T16:08:44;36.70;;;9.60;;
70337;SDS011;57757;53.198;19.646;2022-12-13T16:11:24;26.80;;;8.20;;
70337;SDS011;57757;53.198;19.646;2022-12-13T16:13:54;42.70;;;12.40;;
70337;SDS011;57757;53.198;19.646;2022-12-13T16:19:37;24.60;;;6.70;;
70337;SDS011;57757;53.198;19.646;2022-12-13T16:22:04;34.00;;;10.60;;
70337;SDS011;57757;53.198;19.646;2022-12-13T16:24:35;32.40;;;10.70;;
70337;SDS011;57757;53.198;19.646;2022-12-13T16:27:03;38.30;;;11.40;;
70337;SDS011;57757;53.198;19.646;2022-12-13T16:29:35;34.50;;;12.10;;
70337;SDS011;57757;53.198;19.646;2022-12-13T16:32:03;45.10;;;14.00;;
70337;SDS011;57757;53.198;19.646;2022-12-13T16:34:36;43.70;;;14.60;;
70337;SDS011;57757;53.198;19.646;2022-12-13T16:37:05;55.20;;;19.40;;
70337;SDS011;57757;53.198;19.646;2022-12-13T16:39:53;69.00;;;21.90;;
70337;SDS011;57757;53.198;19.646;2022-12-13T16:42:21;36.20;;;12.60;;
70337;SDS011;57757;53.198;19.646;2022-12-13T16:44:54;25.30;;;9.90;;
70337;SDS011;57757;53.198;19.646;2022-12-13T16:47:44;46.90;;;15.40;;
70337;SDS011;57757;53.198;19.646;2022-12-13T16:50:17;39.10;;;12.40;;
70337;SDS011;57757;53.198;19.646;2022-12-13T16:52:46;33.70;;;10.20;;
70337;SDS011;57757;53.198;19.646;2022-12-13T16:55:15;40.40;;;13.70;;
70337;SDS011;57757;53.198;19.646;2022-12-13T16:57:42;35.20;;;10.70;;
70337;SDS011;57757;53.198;19.646;2022-12-13T17:00:10;36.20;;;12.00;;
70337;SDS011;57757;53.198;19.646;2022-12-13T17:02:39;27.70;;;8.90;;
70337;SDS011;57757;53.198;19.646;2022-12-13T17:05:07;34.00;;;11.40;;
70337;SDS011;57757;53.198;19.646;2022-12-13T17:07:35;25.90;;;8.40;;
70337;SDS011;57757;53.198;19.646;2022-12-13T17:10:03;27.10;;;9.40;;
70337;SDS011;57757;53.198;19.646;2022-12-13T17:12:31;32.20;;;11.20;;
70337;SDS011;57757;53.198;19.646;2022-12-13T17:14:58;22.60;;;7.30;;
70337;SDS011;57757;53.198;19.646;2022-12-13T17:17:26;28.50;;;10.20;;
70337;SDS011;57757;53.198;19.646;2022-12-13T17:19:54;32.80;;;11.00;;
70337;SDS011;57757;53.198;19.646;2022-12-13T17:22:22;44.10;;;14.00;;
70337;SDS011;57757;53.198;19.646;2022-12-13T17:24:50;38.40;;;11.40;;
70337;SDS011;57757;53.198;19.646;2022-12-13T17:27:18;34.80;;;10.80;;
70337;SDS011;57757;53.198;19.646;2022-12-13T17:29:46;28.60;;;9.50;;
70337;SDS011;57757;53.198;19.646;2022-12-13T17:32:14;46.10;;;13.70;;
70337;SDS011;57757;53.198;19.646;2022-12-13T17:34:41;38.00;;;13.90;;
70337;SDS011;57757;53.198;19.646;2022-12-13T17:37:09;37.50;;;12.20;;
70337;SDS011;57757;53.198;19.646;2022-12-13T17:39:37;70.50;;;22.80;;
70337;SDS011;57757;53.198;19.646;2022-12-13T17:42:04;45.00;;;16.20;;
70337;SDS011;57757;53.198;19.646;2022-12-13T17:44:32;41.50;;;16.40;;
70337;SDS011;57757;53.198;19.646;2022-12-13T17:47:00;27.10;;;8.90;;
70337;SDS011;57757;53.198;19.646;2022-12-13T17:49:28;30.20;;;10.30;;
70337;SDS011;57757;53.198;19.646;2022-12-13T17:51:56;31.40;;;11.10;;
70337;SDS011;57757;53.198;19.646;2022-12-13T17:54:24;30.00;;;9.50;;
70337;SDS011;57757;53.198;19.646;2022-12-13T17:56:52;31.30;;;11.50;;
70337;SDS011;57757;53.198;19.646;2022-12-13T17:59:21;34.10;;;11.80;;
70337;SDS011;57757;53.198;19.646;2022-12-13T18:01:49;32.10;;;12.80;;
70337;SDS011;57757;53.198;19.646;2022-12-13T18:04:17;43.70;;;15.90;;